Time;durP1;ratioP1;P1;durP2;ratioP2;P2;SDS_P1;SDS_P2;PMS_P1;PMS_P2;Temp;Humidity;BMP_temperature;BMP_pressure;BME280_temperature;BME280_humidity;BME280_pressure;Samples;Min_cycle;Max_cycle;Signal;HPM_P1;HPM_P2
2022/10/01 00:01:34;;;;;;;;;5.00;5.00;;;;;;;;5074710;28;45339;-75
2022/10/01 00:03:59;;;;;;;;;7.25;7.25;;;;;;;;5074892;28;45789;-74
2022/10/01 00:06:25;;;;;;;;;6.00;6.00;;;;;;;;5075321;28;45452;-75
2022/10/01 00:08:50;;;;;;;;;7.00;7.00;;;;;;;;5074702;28;46334;-74
2022/10/01 00:11:17;;;;;;;;;7.00;7.00;;;;;;;;5074875;28;45391;-75
2022/10/01 00:13:43;;;;;;;;;7.00;7.00;;;;;;;;5075112;28;45365;-75
2022/10/01 00:16:09;;;;;;;;;3.00;3.00;;;;;;;;5074509;28;45317;-75
2022/10/01 00:18:39;;;;;;;;;7.75;6.75;;;;;;;;5056106;28;46165;-74
2022/10/01 00:21:05;;;;;;;;;6.00;6.00;;;;;;;;5074517;28;45237;-73
2022/10/01 00:23:30;;;;;;;;;5.25;5.25;;;;;;;;5074508;28;45865;-74
2022/10/01 00:25:55;;;;;;;;;6.00;6.00;;;;;;;;5074810;28;45385;-74
2022/10/01 00:28:20;;;;;;;;;5.00;5.00;;;;;;;;5056776;28;45940;-74
2022/10/01 00:30:46;;;;;;;;;5.00;5.00;;;;;;;;5075032;28;45363;-75
2022/10/01 00:33:12;;;;;;;;;5.00;5.00;;;;;;;;5078647;28;45401;-76
2022/10/01 00:35:37;;;;;;;;;4.25;4.25;;;;;;;;5078280;28;45307;-73
2022/10/01 00:38:02;;;;;;;;;5.00;5.00;;;;;;;;5077887;28;45524;-73
2022/10/01 00:40:27;;;;;;;;;4.00;4.00;;;;;;;;5078204;28;45535;-74
2022/10/01 00:42:52;;;;;;;;;5.25;5.25;;;;;;;;5060079;28;45423;-74
2022/10/01 00:45:18;;;;;;;;;5.25;5.25;;;;;;;;5078831;28;45362;-75
2022/10/01 00:47:54;;;;;;;;;6.00;6.00;;;;;;;;5080269;28;46196;-75
2022/10/01 00:50:24;;;;;;;;;5.00;5.00;;;;;;;;5080739;28;45440;-75
2022/10/01 00:52:53;;;;;;;;;5.00;5.00;;;;;;;;5078680;28;45243;-74
2022/10/01 00:55:21;;;;;;;;;4.00;4.00;;;;;;;;5079442;28;45361;-73
2022/10/01 00:57:46;;;;;;;;;3.00;3.00;;;;;;;;5059699;28;45395;-75
2022/10/01 01:00:12;;;;;;;;;5.00;5.00;;;;;;;;5059360;28;45289;-75
2022/10/01 01:02:37;;;;;;;;;4.00;4.00;;;;;;;;5078046;28;45263;-75
2022/10/01 01:05:03;;;;;;;;;3.75;3.00;;;;;;;;5077629;28;45540;-75
2022/10/01 01:07:31;;;;;;;;;3.00;3.00;;;;;;;;5077555;28;45485;-75
2022/10/01 01:09:56;;;;;;;;;5.00;5.00;;;;;;;;5059224;28;45465;-74
2022/10/01 01:12:24;;;;;;;;;4.25;4.25;;;;;;;;5076898;28;45484;-74
2022/10/01 01:14:59;;;;;;;;;4.50;4.50;;;;;;;;5059198;28;45414;-74
2022/10/01 01:17:29;;;;;;;;;4.00;4.00;;;;;;;;5076928;28;45552;-75
2022/10/01 01:20:12;;;;;;;;;2.75;2.75;;;;;;;;5077094;28;45371;-76
2022/10/01 01:22:41;;;;;;;;;3.50;3.50;;;;;;;;5059273;28;45245;-75
2022/10/01 01:25:21;;;;;;;;;3.00;3.00;;;;;;;;5077577;28;45523;-73
2022/10/01 01:28:02;;;;;;;;;3.00;3.00;;;;;;;;5058812;28;46711;-76
2022/10/01 01:30:29;;;;;;;;;4.00;4.00;;;;;;;;5077499;28;45268;-75
2022/10/01 01:33:01;;;;;;;;;4.00;4.00;;;;;;;;5059157;28;45391;-76
2022/10/01 01:35:32;;;;;;;;;4.00;4.00;;;;;;;;5077469;28;45404;-75
2022/10/01 01:38:01;;;;;;;;;2.00;2.00;;;;;;;;5077106;28;46353;-75
2022/10/01 01:40:28;;;;;;;;;3.75;3.75;;;;;;;;5077197;28;45431;-75
2022/10/01 01:42:55;;;;;;;;;3.00;3.00;;;;;;;;5077287;28;45339;-74
2022/10/01 01:45:22;;;;;;;;;3.00;3.00;;;;;;;;5078593;28;45567;-76
2022/10/01 01:47:49;;;;;;;;;3.00;3.00;;;;;;;;5077598;28;45334;-76
2022/10/01 01:50:15;;;;;;;;;3.00;3.00;;;;;;;;5077067;28;45228;-76
2022/10/01 01:52:40;;;;;;;;;3.00;3.00;;;;;;;;5077310;28;45477;-73
2022/10/01 01:55:07;;;;;;;;;3.00;3.00;;;;;;;;5077629;28;45635;-73
2022/10/01 01:57:36;;;;;;;;;2.50;2.50;;;;;;;;5076858;28;46236;-76
2022/10/01 02:00:02;;;;;;;;;2.00;2.00;;;;;;;;5076664;27;45410;-76
2022/10/01 02:02:32;;;;;;;;;1.00;1.00;;;;;;;;5077275;28;45390;-75
2022/10/01 02:05:02;;;;;;;;;2.25;2.25;;;;;;;;5076908;28;45396;-73
2022/10/01 02:07:27;;;;;;;;;2.50;2.50;;;;;;;;5076620;28;46538;-76
2022/10/01 02:10:01;;;;;;;;;2.00;2.00;;;;;;;;5076567;28;45350;-76
2022/10/01 02:12:43;;;;;;;;;3.25;3.25;;;;;;;;5058881;28;45407;-73
2022/10/01 02:15:09;;;;;;;;;2.50;2.50;;;;;;;;5076660;28;45319;-74
2022/10/01 02:17:52;;;;;;;;;4.40;4.40;;;;;;;;5076213;28;45472;-73
2022/10/01 02:20:23;;;;;;;;;2.00;2.00;;;;;;;;5076507;28;45325;-74
2022/10/01 02:22:52;;;;;;;;;1.00;1.00;;;;;;;;5076829;28;45311;-76
2022/10/01 02:25:25;;;;;;;;;1.25;1.25;;;;;;;;5076535;28;45375;-74
2022/10/01 02:27:57;;;;;;;;;2.00;2.00;;;;;;;;5057996;28;47246;-72
2022/10/01 02:30:23;;;;;;;;;1.00;1.00;;;;;;;;5057998;28;45682;-74
2022/10/01 02:32:49;;;;;;;;;1.50;1.50;;;;;;;;5076371;28;45301;-75
2022/10/01 02:35:16;;;;;;;;;1.00;1.00;;;;;;;;5076740;28;45201;-76
2022/10/01 02:37:43;;;;;;;;;1.00;1.00;;;;;;;;5076778;28;46358;-75
2022/10/01 02:40:14;;;;;;;;;0.50;0.50;;;;;;;;5076515;28;45425;-75
2022/10/01 02:42:42;;;;;;;;;2.50;2.50;;;;;;;;5076233;28;45224;-75
2022/10/01 02:45:08;;;;;;;;;4.25;4.25;;;;;;;;5076574;27;45331;-75
2022/10/01 02:47:40;;;;;;;;;0.00;0.00;;;;;;;;5057869;28;46086;-76
2022/10/01 02:50:06;;;;;;;;;1.00;1.00;;;;;;;;5076182;28;45299;-75
2022/10/01 02:52:39;;;;;;;;;0.00;0.00;;;;;;;;5075811;28;45410;-76
2022/10/01 02:55:16;;;;;;;;;1.00;1.00;;;;;;;;5057130;28;45362;-75
2022/10/01 02:57:42;;;;;;;;;1.00;1.00;;;;;;;;5075753;28;45336;-75
2022/10/01 03:00:12;;;;;;;;;0.50;0.50;;;;;;;;5057258;28;45361;-74
2022/10/01 03:02:38;;;;;;;;;1.00;1.00;;;;;;;;5058026;28;45383;-74
2022/10/01 03:05:03;;;;;;;;;1.00;1.00;;;;;;;;5076622;28;45497;-76
2022/10/01 03:07:30;;;;;;;;;0.00;0.00;;;;;;;;5076565;28;46369;-75
2022/10/01 03:09:55;;;;;;;;;1.00;1.00;;;;;;;;5076957;27;45371;-74
2022/10/01 03:12:21;;;;;;;;;1.00;1.00;;;;;;;;5076106;28;45296;-76
2022/10/01 03:14:47;;;;;;;;;0.75;0.75;;;;;;;;5074927;28;45381;-79
2022/10/01 03:17:13;;;;;;;;;0.50;0.50;;;;;;;;5072260;28;46113;-76
2022/10/01 03:19:39;;;;;;;;;1.00;1.00;;;;;;;;5072065;28;45493;-77
2022/10/01 03:22:04;;;;;;;;;0.00;0.00;;;;;;;;5075983;28;45323;-79
2022/10/01 03:24:29;;;;;;;;;0.25;0.25;;;;;;;;5078456;28;45576;-79
2022/10/01 03:26:55;;;;;;;;;0.00;0.00;;;;;;;;5080603;28;46241;-79
2022/10/01 03:29:21;;;;;;;;;0.00;0.00;;;;;;;;5077633;27;45225;-76
2022/10/01 03:31:46;;;;;;;;;0.00;0.00;;;;;;;;5060267;28;45209;-77
2022/10/01 03:34:12;;;;;;;;;0.00;0.00;;;;;;;;5058770;28;45254;-76
2022/10/01 03:36:37;;;;;;;;;2.00;2.00;;;;;;;;5078939;28;46364;-76
2022/10/01 03:39:02;;;;;;;;;0.00;0.00;;;;;;;;5077122;28;45329;-78
2022/10/01 03:41:27;;;;;;;;;0.00;0.00;;;;;;;;5078056;28;45338;-78
2022/10/01 03:43:53;;;;;;;;;0.00;0.00;;;;;;;;5079577;28;45392;-76
2022/10/01 03:46:18;;;;;;;;;0.00;0.00;;;;;;;;5077910;28;46333;-77
2022/10/01 03:48:43;;;;;;;;;0.25;0.25;;;;;;;;5078473;28;45398;-77
2022/10/01 03:51:08;;;;;;;;;0.00;0.00;;;;;;;;5078207;28;45316;-77
2022/10/01 03:53:34;;;;;;;;;0.25;0.25;;;;;;;;5079462;28;45224;-78
2022/10/01 03:55:59;;;;;;;;;0.00;0.00;;;;;;;;5078207;28;46385;-76
2022/10/01 03:58:25;;;;;;;;;0.00;0.00;;;;;;;;5077933;28;45567;-76
2022/10/01 04:00:51;;;;;;;;;0.00;0.00;;;;;;;;5059311;28;45418;-78
2022/10/01 04:03:16;;;;;;;;;0.75;0.75;;;;;;;;5059767;28;45634;-78
2022/10/01 04:05:42;;;;;;;;;0.00;0.00;;;;;;;;5080243;28;46131;-77
2022/10/01 04:08:08;;;;;;;;;0.00;0.00;;;;;;;;5089255;27;45240;-77
2022/10/01 04:10:33;;;;;;;;;0.25;0.25;;;;;;;;5093810;28;45390;-77
2022/10/01 04:12:58;;;;;;;;;0.00;0.00;;;;;;;;5085979;27;45605;-78
2022/10/01 04:15:24;;;;;;;;;0.00;0.00;;;;;;;;5081420;28;45608;-78
2022/10/01 04:17:49;;;;;;;;;0.00;0.00;;;;;;;;5081786;28;44928;-78
2022/10/01 04:20:14;;;;;;;;;0.00;0.00;;;;;;;;5082474;28;45437;-77
2022/10/01 04:22:40;;;;;;;;;0.00;0.00;;;;;;;;5083164;28;45405;-77
2022/10/01 04:25:06;;;;;;;;;0.00;0.00;;;;;;;;5085155;27;45454;-80
2022/10/01 04:27:31;;;;;;;;;0.00;0.00;;;;;;;;5087857;28;45363;-78
2022/10/01 04:29:57;;;;;;;;;0.00;0.00;;;;;;;;5085719;28;45188;-79
2022/10/01 04:32:22;;;;;;;;;0.00;0.00;;;;;;;;5081932;28;45199;-80
2022/10/01 04:34:53;;;;;;;;;0.00;0.00;;;;;;;;5081899;28;45427;-77
2022/10/01 04:37:19;;;;;;;;;0.00;0.00;;;;;;;;5064787;28;46081;-82
2022/10/01 04:39:44;;;;;;;;;0.00;0.00;;;;;;;;5081797;28;45376;-81
2022/10/01 04:42:12;;;;;;;;;0.00;0.00;;;;;;;;5062015;28;45322;-80
2022/10/01 04:44:37;;;;;;;;;0.00;0.00;;;;;;;;5081681;28;45350;-79
2022/10/01 04:47:02;;;;;;;;;0.00;0.00;;;;;;;;5080340;28;45314;-81
2022/10/01 04:49:28;;;;;;;;;0.00;0.00;;;;;;;;5083866;28;45141;-78
2022/10/01 04:51:53;;;;;;;;;0.00;0.00;;;;;;;;5082916;28;45180;-78
2022/10/01 04:54:18;;;;;;;;;0.00;0.00;;;;;;;;5081103;28;45463;-81
2022/10/01 04:56:44;;;;;;;;;0.00;0.00;;;;;;;;5061610;28;45363;-78
2022/10/01 04:59:09;;;;;;;;;0.00;0.00;;;;;;;;5080739;28;45314;-80
2022/10/01 05:01:34;;;;;;;;;0.00;0.00;;;;;;;;5079979;28;45178;-81
2022/10/01 05:04:00;;;;;;;;;0.00;0.00;;;;;;;;5080863;28;46358;-79
2022/10/01 05:06:25;;;;;;;;;0.00;0.00;;;;;;;;5082902;28;45196;-79
2022/10/01 05:08:51;;;;;;;;;0.00;0.00;;;;;;;;5061406;28;45344;-79
2022/10/01 05:11:16;;;;;;;;;0.00;0.00;;;;;;;;5080916;28;45662;-79
2022/10/01 05:13:41;;;;;;;;;0.00;0.00;;;;;;;;5079651;28;45389;-77
2022/10/01 05:16:07;;;;;;;;;0.00;0.00;;;;;;;;5080945;28;45423;-77
2022/10/01 05:18:32;;;;;;;;;0.00;0.00;;;;;;;;5080198;28;45304;-80
2022/10/01 05:20:57;;;;;;;;;0.00;0.00;;;;;;;;5079904;27;45365;-80
2022/10/01 05:23:23;;;;;;;;;0.00;0.00;;;;;;;;5079021;28;45399;-80
2022/10/01 05:25:48;;;;;;;;;0.00;0.00;;;;;;;;5080575;28;45390;-78
2022/10/01 05:28:15;;;;;;;;;0.50;0.50;;;;;;;;5078994;28;45268;-78
2022/10/01 05:30:40;;;;;;;;;0.00;0.00;;;;;;;;5078485;28;45399;-79
2022/10/01 05:33:05;;;;;;;;;0.00;0.00;;;;;;;;5060091;28;46503;-77
2022/10/01 05:35:31;;;;;;;;;0.00;0.00;;;;;;;;5059461;28;45446;-77
2022/10/01 05:37:57;;;;;;;;;0.00;0.00;;;;;;;;5077969;28;45279;-79
2022/10/01 05:40:27;;;;;;;;;0.00;0.00;;;;;;;;5078576;28;45228;-79
2022/10/01 05:42:53;;;;;;;;;0.00;0.00;;;;;;;;5060360;28;47680;-78
2022/10/01 05:45:20;;;;;;;;;0.00;0.00;;;;;;;;5079382;28;45493;-77
2022/10/01 05:47:47;;;;;;;;;0.00;0.00;;;;;;;;5077654;28;45335;-78
2022/10/01 05:50:13;;;;;;;;;0.00;0.00;;;;;;;;5078224;28;45612;-77
2022/10/01 05:52:39;;;;;;;;;0.00;0.00;;;;;;;;5077053;28;45578;-77
2022/10/01 05:55:05;;;;;;;;;0.00;0.00;;;;;;;;5077343;28;45300;-77
2022/10/01 05:57:30;;;;;;;;;0.00;0.00;;;;;;;;5078740;28;45370;-79
2022/10/01 05:59:56;;;;;;;;;0.00;0.00;;;;;;;;5061221;28;45353;-79
2022/10/01 06:02:21;;;;;;;;;0.00;0.00;;;;;;;;5079913;28;46235;-79
2022/10/01 06:04:46;;;;;;;;;0.00;0.00;;;;;;;;5080192;28;45422;-78
2022/10/01 06:07:12;;;;;;;;;0.00;0.00;;;;;;;;5083908;28;45306;-78
2022/10/01 06:09:37;;;;;;;;;0.00;0.00;;;;;;;;5082011;28;45420;-78
2022/10/01 06:12:04;;;;;;;;;0.00;0.00;;;;;;;;5078644;28;45493;-79
2022/10/01 06:14:32;;;;;;;;;1.00;1.00;;;;;;;;5077829;28;45340;-79
2022/10/01 06:16:57;;;;;;;;;1.00;1.00;;;;;;;;5078707;28;45399;-81
2022/10/01 06:19:23;;;;;;;;;0.00;0.00;;;;;;;;5079580;28;45443;-80
2022/10/01 06:21:48;;;;;;;;;0.00;0.00;;;;;;;;5079538;28;45426;-79
2022/10/01 06:24:13;;;;;;;;;0.75;0.75;;;;;;;;5078870;28;45342;-79
2022/10/01 06:26:38;;;;;;;;;0.00;0.00;;;;;;;;5080882;28;45347;-79
2022/10/01 06:29:03;;;;;;;;;0.25;0.25;;;;;;;;5078469;28;45573;-77
2022/10/01 06:31:29;;;;;;;;;0.00;0.00;;;;;;;;5080591;28;45149;-81
2022/10/01 06:33:54;;;;;;;;;0.25;0.25;;;;;;;;5064280;28;45857;-78
2022/10/01 06:36:19;;;;;;;;;0.25;0.25;;;;;;;;5084205;28;45254;-77
2022/10/01 06:38:48;;;;;;;;;0.00;0.00;;;;;;;;5082162;28;45185;-78
2022/10/01 06:41:13;;;;;;;;;1.00;1.00;;;;;;;;5060668;28;46269;-77
2022/10/01 06:43:38;;;;;;;;;0.50;0.50;;;;;;;;5077026;28;45402;-78
2022/10/01 06:46:04;;;;;;;;;1.50;1.50;;;;;;;;5079982;28;45421;-78
2022/10/01 06:48:30;;;;;;;;;0.00;0.00;;;;;;;;5081328;28;44955;-78
2022/10/01 06:50:56;;;;;;;;;0.00;0.00;;;;;;;;5065040;28;46072;-79
2022/10/01 06:53:21;;;;;;;;;0.75;0.75;;;;;;;;5082410;27;45273;-81
2022/10/01 06:55:48;;;;;;;;;0.00;0.00;;;;;;;;5082106;28;45220;-81
2022/10/01 06:58:15;;;;;;;;;1.00;1.00;;;;;;;;5065251;28;45301;-80
2022/10/01 07:00:40;;;;;;;;;0.00;0.00;;;;;;;;5080954;28;46221;-81
2022/10/01 07:03:10;;;;;;;;;1.25;1.25;;;;;;;;5081138;28;45396;-79
2022/10/01 07:05:35;;;;;;;;;0.25;0.25;;;;;;;;5062327;28;45381;-81
2022/10/01 07:08:00;;;;;;;;;1.00;1.00;;;;;;;;5061337;28;45406;-79
2022/10/01 07:10:26;;;;;;;;;0.00;0.00;;;;;;;;5080246;28;46221;-80
2022/10/01 07:12:51;;;;;;;;;2.00;2.00;;;;;;;;5085468;28;45379;-84
2022/10/01 07:15:18;;;;;;;;;1.00;1.00;;;;;;;;5085040;28;45315;-79
2022/10/01 07:17:44;;;;;;;;;2.50;2.50;;;;;;;;5083569;28;45501;-82
2022/10/01 07:20:09;;;;;;;;;0.75;0.75;;;;;;;;5081611;28;46369;-80
2022/10/01 07:22:35;;;;;;;;;1.00;1.00;;;;;;;;5080889;27;45184;-82
2022/10/01 07:25:01;;;;;;;;;0.00;0.00;;;;;;;;5080582;28;45373;-76
2022/10/01 07:27:26;;;;;;;;;2.00;2.00;;;;;;;;5083716;28;45523;-78
2022/10/01 07:29:52;;;;;;;;;1.00;1.00;;;;;;;;5066725;28;46069;-83
2022/10/01 07:32:17;;;;;;;;;2.00;2.00;;;;;;;;5085295;28;45341;-79
2022/10/01 07:34:42;;;;;;;;;1.25;1.25;;;;;;;;5086264;28;45544;-77
2022/10/01 07:37:08;;;;;;;;;1.00;1.00;;;;;;;;5087859;28;45331;-78
2022/10/01 07:39:34;;;;;;;;;1.00;1.00;;;;;;;;5084150;28;46441;-77
2022/10/01 07:41:59;;;;;;;;;1.00;1.00;;;;;;;;5084166;27;45295;-79
2022/10/01 07:44:26;;;;;;;;;0.75;0.75;;;;;;;;5086071;28;45361;-80
2022/10/01 07:46:52;;;;;;;;;1.00;1.00;;;;;;;;5087825;28;45714;-79
2022/10/01 07:49:17;;;;;;;;;2.00;2.00;;;;;;;;5081798;28;46471;-77
2022/10/01 07:51:43;;;;;;;;;3.50;3.50;;;;;;;;5081949;28;45235;-80
2022/10/01 07:54:08;;;;;;;;;1.50;1.50;;;;;;;;5082366;27;45292;-79
2022/10/01 07:56:34;;;;;;;;;1.00;1.00;;;;;;;;5083717;28;45232;-77
2022/10/01 07:58:59;;;;;;;;;2.00;2.00;;;;;;;;5081257;28;45997;-78
2022/10/01 08:01:24;;;;;;;;;2.00;1.00;;;;;;;;5081671;28;45275;-80
2022/10/01 08:03:54;;;;;;;;;1.25;1.25;;;;;;;;5083134;28;45177;-79
2022/10/01 08:06:20;;;;;;;;;2.00;2.00;;;;;;;;5083834;27;45381;-77
2022/10/01 08:08:45;;;;;;;;;3.50;3.50;;;;;;;;5085655;28;46416;-79
2022/10/01 08:11:13;;;;;;;;;1.75;1.75;;;;;;;;5087157;28;45263;-79
2022/10/01 08:13:39;;;;;;;;;1.25;1.25;;;;;;;;5064100;28;45240;-78
2022/10/01 08:16:06;;;;;;;;;2.75;2.75;;;;;;;;5062949;28;45340;-78
2022/10/01 08:18:32;;;;;;;;;2.00;2.00;;;;;;;;5062845;28;47248;-79
2022/10/01 08:20:58;;;;;;;;;2.00;2.00;;;;;;;;5081734;28;45824;-80
2022/10/01 08:23:24;;;;;;;;;2.00;2.00;;;;;;;;5062570;28;45358;-78
2022/10/01 08:25:49;;;;;;;;;2.00;2.00;;;;;;;;5080826;28;45359;-77
2022/10/01 08:28:15;;;;;;;;;3.75;3.75;;;;;;;;5081336;28;45508;-79
2022/10/01 08:30:41;;;;;;;;;1.00;1.00;;;;;;;;5067343;28;45327;-78
2022/10/01 08:33:07;;;;;;;;;2.50;2.50;;;;;;;;5083696;28;45244;-77
2022/10/01 08:35:32;;;;;;;;;4.50;4.50;;;;;;;;5080776;28;45399;-80
2022/10/01 08:38:01;;;;;;;;;1.50;1.50;;;;;;;;5080764;28;46192;-78
2022/10/01 08:40:26;;;;;;;;;2.75;2.75;;;;;;;;5080666;28;45320;-80
2022/10/01 08:43:11;;;;;;;;;4.75;4.75;;;;;;;;5080313;28;45300;-79
2022/10/01 08:45:44;;;;;;;;;2.25;2.25;;;;;;;;5085675;28;45510;-79
2022/10/01 08:48:24;;;;;;;;;3.00;3.00;;;;;;;;5081249;28;45436;-79
2022/10/01 08:51:12;;;;;;;;;3.00;3.00;;;;;;;;5081740;28;45268;-79
2022/10/01 08:53:41;;;;;;;;;3.25;3.25;;;;;;;;5033518;28;45260;-78
2022/10/01 08:56:12;;;;;;;;;10.50;9.75;;;;;;;;5080066;28;45578;-80
2022/10/01 08:58:42;;;;;;;;;4.75;4.75;;;;;;;;5079501;27;45393;-78
2022/10/01 09:01:09;;;;;;;;;3.25;3.25;;;;;;;;5061287;28;45454;-80
2022/10/01 09:03:35;;;;;;;;;3.00;3.00;;;;;;;;5080352;28;45433;-80
2022/10/01 09:06:02;;;;;;;;;4.25;4.25;;;;;;;;5064919;28;45482;-76
2022/10/01 09:08:46;;;;;;;;;1.25;1.25;;;;;;;;5083637;28;46174;-79
2022/10/01 09:11:26;;;;;;;;;3.00;3.00;;;;;;;;5066464;28;45225;-80
2022/10/01 09:14:05;;;;;;;;;3.50;3.50;;;;;;;;5085871;27;46014;-80
2022/10/01 09:16:37;;;;;;;;;4.50;4.50;;;;;;;;5083633;28;45449;-80
2022/10/01 09:19:28;;;;;;;;;4.75;4.25;;;;;;;;5083002;27;45439;-79
2022/10/01 09:21:53;;;;;;;;;4.00;4.00;;;;;;;;5065581;28;45366;-80
2022/10/01 09:24:28;;;;;;;;;6.75;6.75;;;;;;;;5062006;28;45284;-79
2022/10/01 09:26:54;;;;;;;;;3.25;3.25;;;;;;;;5083756;28;45636;-80
2022/10/01 09:29:25;;;;;;;;;2.75;2.75;;;;;;;;5067293;27;46747;-78
2022/10/01 09:31:51;;;;;;;;;4.00;3.00;;;;;;;;5082929;28;45397;-79
2022/10/01 09:34:27;;;;;;;;;2.25;2.25;;;;;;;;5080878;28;45342;-79
2022/10/01 09:37:03;;;;;;;;;3.75;3.75;;;;;;;;5084432;28;45214;-78
2022/10/01 09:39:32;;;;;;;;;5.50;4.50;;;;;;;;5082902;28;45340;-79
2022/10/01 09:41:58;;;;;;;;;3.75;3.75;;;;;;;;5083832;28;45375;-80
2022/10/01 09:44:26;;;;;;;;;4.25;4.25;;;;;;;;5083648;28;45441;-81
2022/10/01 09:46:52;;;;;;;;;3.00;3.00;;;;;;;;5083836;28;45565;-79
2022/10/01 09:49:38;;;;;;;;;8.25;7.75;;;;;;;;5085089;28;45162;-81
2022/10/01 09:52:13;;;;;;;;;4.50;4.50;;;;;;;;5083673;28;45240;-79
2022/10/01 09:54:42;;;;;;;;;4.75;3.75;;;;;;;;5081893;28;45484;-79
2022/10/01 09:57:21;;;;;;;;;2.75;2.75;;;;;;;;5080992;28;45435;-80
2022/10/01 10:00:03;;;;;;;;;4.00;4.00;;;;;;;;5079993;27;45371;-78
2022/10/01 10:02:33;;;;;;;;;5.00;5.00;;;;;;;;5080937;28;45299;-78
2022/10/01 10:05:03;;;;;;;;;4.25;4.25;;;;;;;;5081079;28;45384;-78
2022/10/01 10:07:31;;;;;;;;;3.75;3.75;;;;;;;;5078591;28;45293;-78
2022/10/01 10:09:57;;;;;;;;;4.00;4.00;;;;;;;;5077749;28;46570;-78
2022/10/01 10:12:29;;;;;;;;;4.75;4.75;;;;;;;;5059030;28;45330;-78
2022/10/01 10:14:55;;;;;;;;;9.00;8.50;;;;;;;;5077135;28;45457;-78
2022/10/01 10:17:21;;;;;;;;;4.25;3.75;;;;;;;;5077863;27;45485;-77
2022/10/01 10:19:50;;;;;;;;;3.00;3.00;;;;;;;;5078277;28;46396;-78
2022/10/01 10:22:23;;;;;;;;;4.00;4.00;;;;;;;;5077799;28;45291;-81
2022/10/01 10:24:49;;;;;;;;;4.50;3.75;;;;;;;;5060962;28;45325;-82
2022/10/01 10:27:25;;;;;;;;;4.00;4.00;;;;;;;;5082829;28;45568;-78
2022/10/01 10:29:59;;;;;;;;;4.50;4.50;;;;;;;;5081162;27;46208;-78
2022/10/01 10:32:28;;;;;;;;;2.50;2.50;;;;;;;;5080112;28;45300;-80
2022/10/01 10:34:55;;;;;;;;;6.00;6.00;;;;;;;;5081260;27;45296;-78
2022/10/01 10:37:29;;;;;;;;;2.25;2.25;;;;;;;;5081450;28;45286;-81
2022/10/01 10:39:56;;;;;;;;;3.00;3.00;;;;;;;;5063609;28;48244;-78
2022/10/01 10:42:23;;;;;;;;;3.00;3.00;;;;;;;;5084304;28;44749;-79
2022/10/01 10:44:50;;;;;;;;;0.00;0.00;;;;;;;;5085785;28;45214;-77
2022/10/01 10:47:16;;;;;;;;;5.25;4.75;;;;;;;;5086577;27;45178;-79
2022/10/01 10:49:43;;;;;;;;;5.00;4.50;;;;;;;;5063251;28;47184;-78
2022/10/01 10:52:23;;;;;;;;;6.25;6.00;;;;;;;;5079433;28;45416;-79
2022/10/01 10:54:50;;;;;;;;;4.00;4.00;;;;;;;;5064747;28;45162;-82
2022/10/01 10:57:22;;;;;;;;;9.50;8.75;;;;;;;;5087213;28;45560;-81
2022/10/01 10:59:55;;;;;;;;;3.00;3.00;;;;;;;;5089316;28;45355;-78
2022/10/01 11:02:22;;;;;;;;;2.00;2.00;;;;;;;;5092627;28;44709;-77
2022/10/01 11:04:48;;;;;;;;;2.50;2.50;;;;;;;;5084475;27;45775;-78
2022/10/01 11:07:18;;;;;;;;;2.25;2.25;;;;;;;;5082425;28;45296;-78
2022/10/01 11:10:04;;;;;;;;;2.00;2.00;;;;;;;;5081631;28;45317;-79
2022/10/01 11:12:40;;;;;;;;;5.25;5.25;;;;;;;;5052548;28;45833;-80
2022/10/01 11:15:23;;;;;;;;;4.00;4.00;;;;;;;;5081337;28;45331;-81
2022/10/01 11:18:09;;;;;;;;;6.00;6.00;;;;;;;;5079840;28;45461;-80
2022/10/01 11:20:34;;;;;;;;;3.50;2.75;;;;;;;;5060119;28;46995;-79
2022/10/01 11:23:05;;;;;;;;;3.50;3.50;;;;;;;;5080875;28;45692;-79
2022/10/01 11:25:42;;;;;;;;;3.25;3.25;;;;;;;;5080720;28;45524;-79
2022/10/01 11:28:26;;;;;;;;;2.25;2.25;;;;;;;;5079128;28;45368;-79
2022/10/01 11:30:57;;;;;;;;;4.00;4.00;;;;;;;;5061937;28;47654;-80
2022/10/01 11:33:31;;;;;;;;;5.25;5.25;;;;;;;;5078388;28;45204;-79
2022/10/01 11:36:00;;;;;;;;;4.75;4.75;;;;;;;;5061639;28;45249;-82
2022/10/01 11:38:27;;;;;;;;;3.75;3.75;;;;;;;;5079860;28;45581;-80
2022/10/01 11:40:57;;;;;;;;;3.25;3.25;;;;;;;;5065283;28;48129;-80
2022/10/01 11:43:35;;;;;;;;;4.50;4.50;;;;;;;;5062064;28;45230;-78
2022/10/01 11:46:18;;;;;;;;;4.25;4.25;;;;;;;;5078140;27;45282;-80
2022/10/01 11:48:49;;;;;;;;;3.00;3.00;;;;;;;;5062756;28;45557;-80
2022/10/01 11:51:21;;;;;;;;;2.75;2.75;;;;;;;;5078335;28;45449;-79
2022/10/01 11:53:50;;;;;;;;;3.00;3.00;;;;;;;;5079176;28;45402;-80
2022/10/01 11:59:28;;;;;;;;;5.25;5.25;;;;;;;;5078974;28;45231;-80
2022/10/01 12:01:56;;;;;;;;;4.00;3.25;;;;;;;;5082678;28;46190;-83
2022/10/01 12:04:28;;;;;;;;;5.00;5.00;;;;;;;;5084167;28;45279;-80
2022/10/01 12:07:04;;;;;;;;;3.75;3.75;;;;;;;;5062593;28;45355;-82
2022/10/01 12:09:46;;;;;;;;;5.00;5.00;;;;;;;;5080832;28;45515;-79
2022/10/01 12:12:14;;;;;;;;;4.00;4.00;;;;;;;;5063937;28;47988;-81
2022/10/01 12:14:43;;;;;;;;;2.75;2.75;;;;;;;;5081237;28;45339;-79
2022/10/01 12:17:08;;;;;;;;;3.50;3.50;;;;;;;;5086653;28;45310;-83
2022/10/01 12:19:37;;;;;;;;;2.50;2.50;;;;;;;;5080812;28;45233;-78
2022/10/01 12:22:32;;;;;;;;;3.00;3.00;;;;;;;;5063368;28;45481;-79
2022/10/01 12:24:57;;;;;;;;;2.50;2.00;;;;;;;;5064387;28;45390;-76
2022/10/01 12:27:35;;;;;;;;;0.50;0.50;;;;;;;;5077679;28;45334;-77
2022/10/01 12:30:12;;;;;;;;;4.25;4.25;;;;;;;;5080886;28;45370;-80
2022/10/01 12:32:46;;;;;;;;;2.25;2.25;;;;;;;;5081308;28;45574;-82
2022/10/01 12:35:13;;;;;;;;;2.00;2.00;;;;;;;;5083541;28;45232;-78
2022/10/01 12:37:59;;;;;;;;;2.00;2.00;;;;;;;;5087067;28;45293;-80
2022/10/01 12:40:31;;;;;;;;;0.75;0.75;;;;;;;;5070147;28;45519;-77
2022/10/01 12:43:12;;;;;;;;;2.25;2.25;;;;;;;;5084915;27;45509;-79
2022/10/01 12:45:54;;;;;;;;;4.00;4.00;;;;;;;;5081353;28;45379;-79
2022/10/01 12:48:38;;;;;;;;;4.00;4.00;;;;;;;;5080714;28;45235;-80
2022/10/01 12:51:36;;;;;;;;;3.00;3.00;;;;;;;;5083254;28;45327;-80
2022/10/01 12:54:20;;;;;;;;;4.75;4.75;;;;;;;;5070351;28;47798;-80
2022/10/01 12:56:52;;;;;;;;;4.25;4.25;;;;;;;;5067589;28;45861;-79
2022/10/01 12:59:23;;;;;;;;;3.75;3.75;;;;;;;;5085459;28;45190;-80
2022/10/01 13:01:57;;;;;;;;;3.25;3.25;;;;;;;;5081367;28;45453;-81
2022/10/01 13:04:27;;;;;;;;;3.50;2.50;;;;;;;;5079663;28;45473;-80
2022/10/01 13:06:59;;;;;;;;;3.00;3.00;;;;;;;;5081140;27;45292;-79
2022/10/01 13:09:43;;;;;;;;;3.75;3.75;;;;;;;;5063732;28;45372;-81
2022/10/01 13:12:10;;;;;;;;;4.00;4.00;;;;;;;;5064254;28;45289;-80
2022/10/01 13:14:41;;;;;;;;;5.00;5.00;;;;;;;;5081451;28;45511;-78
2022/10/01 13:17:12;;;;;;;;;3.00;3.00;;;;;;;;5080788;27;45374;-78
2022/10/01 13:19:37;;;;;;;;;3.00;3.00;;;;;;;;5079774;28;45512;-79
2022/10/01 13:22:07;;;;;;;;;4.25;4.25;;;;;;;;5062349;28;45375;-83
2022/10/01 13:24:41;;;;;;;;;5.75;5.75;;;;;;;;5081411;28;45568;-81
2022/10/01 13:27:19;;;;;;;;;4.50;4.50;;;;;;;;5079921;28;45352;-80
2022/10/01 13:29:53;;;;;;;;;6.50;5.25;;;;;;;;5082297;28;45225;-81
2022/10/01 13:32:26;;;;;;;;;5.00;5.00;;;;;;;;5085484;28;45302;-79
2022/10/01 13:34:52;;;;;;;;;4.00;4.00;;;;;;;;5085562;28;45371;-87
2022/10/01 13:37:29;;;;;;;;;2.00;2.00;;;;;;;;5081817;28;45379;-83
2022/10/01 13:39:55;;;;;;;;;4.50;4.50;;;;;;;;5062493;28;45378;-81
2022/10/01 13:42:25;;;;;;;;;3.00;3.00;;;;;;;;5081903;28;45470;-83
2022/10/01 13:44:52;;;;;;;;;6.25;6.25;;;;;;;;5081586;28;46611;-79
2022/10/01 13:47:18;;;;;;;;;7.25;7.25;;;;;;;;5063272;28;45380;-82
2022/10/01 13:50:53;;;;;;;;;4.25;4.25;;;;;;;;5083376;28;45360;-81
2022/10/01 13:53:04;;;;;;;;;3.00;3.00;;;;;;;;5080056;27;45530;-81
2022/10/01 13:55:30;;;;;;;;;2.50;2.50;;;;;;;;5083308;27;45411;-79
2022/10/01 13:58:03;;;;;;;;;2.00;2.00;;;;;;;;5066431;28;45427;-80
2022/10/01 14:00:28;;;;;;;;;3.50;3.50;;;;;;;;5085519;28;45305;-79
2022/10/01 14:03:02;;;;;;;;;1.75;1.75;;;;;;;;5091446;27;45175;-78
2022/10/01 14:05:28;;;;;;;;;3.25;3.25;;;;;;;;5090703;28;45725;-80
2022/10/01 14:08:16;;;;;;;;;1.75;1.00;;;;;;;;5088010;28;45252;-79
2022/10/01 14:16:26;;;;;;;;;5.75;5.75;;;;;;;;5088480;28;45097;-79
2022/10/01 14:18:51;;;;;;;;;2.50;2.50;;;;;;;;5088012;28;45247;-83
2022/10/01 14:21:35;;;;;;;;;3.00;3.00;;;;;;;;5089102;28;45319;-84
2022/10/01 14:24:00;;;;;;;;;0.50;0.50;;;;;;;;5089970;28;45311;-84
2022/10/01 14:26:39;;;;;;;;;4.25;4.25;;;;;;;;5072677;28;47090;-79
2022/10/01 14:29:13;;;;;;;;;1.00;1.00;;;;;;;;5069987;27;45181;-81
2022/10/01 14:31:44;;;;;;;;;64.50;56.00;;;;;;;;5085486;28;45295;-80
2022/10/01 14:34:19;;;;;;;;;2.50;2.50;;;;;;;;5086852;28;45232;-83
2022/10/01 14:36:53;;;;;;;;;2.00;1.75;;;;;;;;5087977;28;45688;-81
2022/10/01 14:39:25;;;;;;;;;1.00;1.00;;;;;;;;5069466;28;45312;-81
2022/10/01 14:41:52;;;;;;;;;2.00;2.00;;;;;;;;5085823;28;45489;-81
2022/10/01 14:44:25;;;;;;;;;1.50;1.50;;;;;;;;5080575;28;45548;-79
2022/10/01 14:46:51;;;;;;;;;2.00;2.00;;;;;;;;5084357;28;45318;-80
2022/10/01 14:49:22;;;;;;;;;1.25;1.00;;;;;;;;5081328;28;45462;-80
2022/10/01 14:51:49;;;;;;;;;1.75;1.75;;;;;;;;5078147;28;45254;-79
2022/10/01 14:54:14;;;;;;;;;1.00;1.00;;;;;;;;5079359;28;45299;-81
2022/10/01 14:56:41;;;;;;;;;0.50;0.50;;;;;;;;5078484;28;45328;-79
2022/10/01 14:59:16;;;;;;;;;0.00;0.00;;;;;;;;5079778;28;45291;-82
2022/10/01 15:01:41;;;;;;;;;2.00;2.00;;;;;;;;5080568;28;45262;-79
2022/10/01 15:04:13;;;;;;;;;2.00;2.00;;;;;;;;5061098;28;45574;-78